Terminal Aerodrome Forecast
Issued by NWS Cleveland, OH

Home | Current Version | Previous Version | Graphics & Text | Print | Product List | Glossary On
Versions: 1 2 3 4 5 6 7 8 9 10 11 12 13 14 15
000
FTUS41 KCLE 182331
TAFYNG
TAF
KYNG 182331Z 1900/1924 03008KT P6SM OVC060
      TEMPO 1900/1903 5SM -RA BKN025
     FM190300 06006KT 5SM -RA OVC012
     FM190800 34012KT 1SM -SN OVC005
     FM191700 34012G25KT 5SM -SHSN OVC012=

USA.gov is the U.S. government's official web portal to all federal, state and local government web resources and services.